Time;durP1;ratioP1;P1;durP2;ratioP2;P2;SDS_P1;SDS_P2;PMS_P1;PMS_P2;Temp;Humidity;BMP_temperature;BMP_pressure;BME280_temperature;BME280_humidity;BME280_pressure;Samples;Min_cycle;Max_cycle;Signal;HPM_P1;HPM_P2
2022/02/20 00:01:33;;;;;;;9.80;4.47;;;5.40;99.90;;;;;;5046132;28;20131;-67
2022/02/20 00:03:59;;;;;;;10.45;5.30;;;5.40;99.90;;;;;;5078538;28;20032;-67
2022/02/20 00:06:26;;;;;;;9.13;4.38;;;5.40;99.90;;;;;;5078181;28;20353;-67
2022/02/20 00:08:51;;;;;;;10.07;4.43;;;5.40;99.90;;;;;;5061566;28;20050;-67
2022/02/20 00:11:17;;;;;;;11.65;4.43;;;5.50;99.90;;;;;;5046988;28;20054;-67
2022/02/20 00:13:43;;;;;;;15.60;4.35;;;5.40;99.90;;;;;;5077386;28;20051;-67
2022/02/20 00:16:09;;;;;;;9.73;3.78;;;5.30;99.90;;;;;;5080707;28;20066;-67
2022/02/20 00:18:34;;;;;;;9.32;3.50;;;5.40;99.90;;;;;;5078164;28;20036;-67
2022/02/20 00:21:00;;;;;;;14.73;3.15;;;5.40;99.90;;;;;;5074318;28;20093;-67
2022/02/20 00:23:26;;;;;;;14.07;3.33;;;5.50;99.90;;;;;;5080626;28;20575;-68
2022/02/20 00:25:51;;;;;;;12.93;3.05;;;5.50;99.90;;;;;;5059891;28;20079;-68
2022/02/20 00:28:17;;;;;;;9.55;2.80;;;5.40;99.90;;;;;;5077057;28;20044;-68
2022/02/20 00:30:43;;;;;;;15.07;2.75;;;5.50;99.90;;;;;;5080147;28;20405;-68
2022/02/20 00:33:10;;;;;;;11.40;2.42;;;5.50;99.90;;;;;;5075766;28;20097;-67
2022/02/20 00:35:36;;;;;;;12.57;2.85;;;5.50;99.90;;;;;;5073935;28;20047;-67
2022/02/20 00:38:04;;;;;;;9.13;3.17;;;5.50;99.90;;;;;;5080174;28;20415;-67
2022/02/20 00:40:30;;;;;;;9.88;3.47;;;5.50;99.90;;;;;;5076994;28;20070;-67
2022/02/20 00:42:56;;;;;;;13.73;4.25;;;5.40;99.90;;;;;;5076286;28;20055;-68
2022/02/20 00:45:22;;;;;;;10.20;4.20;;;5.40;99.90;;;;;;5061346;28;20040;-67
2022/02/20 00:47:48;;;;;;;11.60;5.15;;;5.40;99.90;;;;;;5077164;28;20109;-67
2022/02/20 00:50:14;;;;;;;11.45;5.30;;;5.40;99.90;;;;;;5073760;28;20170;-67
2022/02/20 00:52:40;;;;;;;10.40;6.15;;;5.30;99.90;;;;;;5079988;28;20041;-67
2022/02/20 00:55:07;;;;;;;7.93;5.13;;;5.20;99.90;;;;;;5077131;28;20027;-67
2022/02/20 00:57:32;;;;;;;8.45;5.88;;;5.20;99.90;;;;;;5058648;28;20373;-67
2022/02/20 00:59:58;;;;;;;8.95;6.18;;;5.10;99.90;;;;;;5079102;28;20123;-67
2022/02/20 01:02:24;;;;;;;6.95;5.38;;;5.10;99.90;;;;;;5079356;28;21375;-67
2022/02/20 01:04:49;;;;;;;8.52;5.57;;;5.00;99.90;;;;;;5080657;28;20051;-67
2022/02/20 01:07:18;;;;;;;7.68;6.13;;;4.80;99.90;;;;;;5080996;28;21020;-67
2022/02/20 01:09:44;;;;;;;8.80;5.97;;;4.70;99.90;;;;;;5081339;28;20048;-67
2022/02/20 01:12:10;;;;;;;6.78;5.13;;;4.70;99.90;;;;;;5061474;28;20044;-67
2022/02/20 01:14:36;;;;;;;6.47;5.32;;;4.60;99.90;;;;;;5086098;28;20044;-67
2022/02/20 01:17:02;;;;;;;6.70;6.10;;;4.50;99.90;;;;;;5065451;28;20399;-67
2022/02/20 01:19:28;;;;;;;7.13;6.25;;;4.50;99.90;;;;;;5060840;28;20079;-67
2022/02/20 01:21:53;;;;;;;5.85;5.35;;;4.40;99.90;;;;;;5060719;28;20312;-67
2022/02/20 01:24:19;;;;;;;6.72;6.03;;;4.40;99.90;;;;;;5083268;28;20040;-67
2022/02/20 01:26:44;;;;;;;7.22;5.53;;;4.30;99.90;;;;;;5080142;28;20051;-67
2022/02/20 01:29:10;;;;;;;6.68;5.72;;;4.30;99.90;;;;;;5062872;28;20066;-67
2022/02/20 01:31:36;;;;;;;5.22;4.50;;;4.20;99.90;;;;;;5064649;28;20107;-67
2022/02/20 01:34:02;;;;;;;4.95;4.47;;;4.20;99.90;;;;;;5081251;28;20035;-67
2022/02/20 01:36:27;;;;;;;4.97;4.30;;;4.10;99.90;;;;;;5062855;28;20599;-67
2022/02/20 01:38:53;;;;;;;3.83;3.42;;;4.00;99.90;;;;;;5062285;28;20165;-67
2022/02/20 01:41:20;;;;;;;5.78;3.90;;;3.90;99.90;;;;;;5080570;28;20036;-67
2022/02/20 01:43:46;;;;;;;4.40;3.67;;;3.80;99.90;;;;;;5061365;28;20107;-68
2022/02/20 01:46:12;;;;;;;4.93;3.70;;;3.70;99.90;;;;;;5080198;28;20044;-68
2022/02/20 01:48:38;;;;;;;4.57;3.92;;;3.70;99.90;;;;;;5062704;28;20040;-68
2022/02/20 01:51:05;;;;;;;3.90;3.38;;;3.60;99.90;;;;;;5078889;28;20043;-68
2022/02/20 01:53:31;;;;;;;4.68;3.67;;;3.60;99.90;;;;;;5046924;28;20488;-68
2022/02/20 01:55:57;;;;;;;3.95;3.55;;;3.60;99.90;;;;;;5079891;28;20139;-68
2022/02/20 01:58:23;;;;;;;4.88;3.70;;;3.50;99.90;;;;;;5076828;28;20036;-68
2022/02/20 02:00:49;;;;;;;6.50;4.10;;;3.50;99.90;;;;;;5063865;28;20653;-68
2022/02/20 02:03:16;;;;;;;4.03;3.53;;;3.50;99.90;;;;;;5064688;28;20036;-68
2022/02/20 02:05:43;;;;;;;4.10;3.67;;;3.50;99.90;;;;;;5080137;28;20051;-68
2022/02/20 02:08:09;;;;;;;5.32;3.95;;;3.50;99.90;;;;;;5062932;28;20283;-68
2022/02/20 02:10:35;;;;;;;4.07;3.67;;;3.50;99.90;;;;;;5081929;28;20040;-68
2022/02/20 02:13:01;;;;;;;4.40;3.63;;;3.50;99.90;;;;;;5061590;28;20054;-68
2022/02/20 02:15:26;;;;;;;5.07;3.55;;;3.50;99.90;;;;;;5047912;28;20129;-68
2022/02/20 02:17:52;;;;;;;4.22;3.13;;;3.50;99.90;;;;;;5065609;28;20245;-68
2022/02/20 02:20:18;;;;;;;3.95;2.80;;;3.50;99.90;;;;;;5062223;28;20051;-68
2022/02/20 02:22:44;;;;;;;3.13;2.83;;;3.40;99.90;;;;;;5079247;28;20029;-68
2022/02/20 02:25:09;;;;;;;3.58;2.15;;;3.50;99.90;;;;;;5081898;28;20035;-68
2022/02/20 02:27:35;;;;;;;4.68;2.45;;;3.50;99.90;;;;;;5078497;28;20598;-68
2022/02/20 02:30:05;;;;;;;3.15;2.50;;;3.50;99.90;;;;;;5080511;28;20032;-68
2022/02/20 02:32:31;;;;;;;3.17;2.50;;;3.50;99.90;;;;;;5061143;28;20120;-68
2022/02/20 02:34:56;;;;;;;3.80;3.10;;;3.50;99.90;;;;;;5058145;28;20055;-68
2022/02/20 02:37:22;;;;;;;5.10;2.70;;;3.50;99.90;;;;;;5080094;28;20040;-68
2022/02/20 02:39:48;;;;;;;4.00;3.25;;;3.60;99.90;;;;;;5080354;28;20056;-68
2022/02/20 02:42:13;;;;;;;4.50;2.97;;;3.60;99.90;;;;;;5058622;28;20118;-68
2022/02/20 02:44:39;;;;;;;2.90;2.60;;;3.50;99.90;;;;;;5081452;28;20141;-68
2022/02/20 02:47:07;;;;;;;3.42;2.70;;;3.60;99.90;;;;;;5061350;28;20028;-68
2022/02/20 02:49:34;;;;;;;4.60;2.90;;;3.60;99.90;;;;;;5076451;28;20036;-68
2022/02/20 02:52:00;;;;;;;3.10;2.42;;;3.60;99.90;;;;;;5079223;28;20025;-68
2022/02/20 02:54:26;;;;;;;4.05;2.53;;;3.60;99.90;;;;;;5081178;28;20047;-68
2022/02/20 02:56:51;;;;;;;2.83;2.42;;;3.60;99.90;;;;;;5077546;28;20137;-68
2022/02/20 02:59:18;;;;;;;3.60;2.92;;;3.60;99.90;;;;;;5075688;28;20111;-68
2022/02/20 03:01:45;;;;;;;3.05;2.72;;;3.60;99.90;;;;;;5063756;28;20048;-68
2022/02/20 03:04:11;;;;;;;5.88;3.00;;;3.60;99.90;;;;;;5078462;28;20048;-68
2022/02/20 03:06:37;;;;;;;4.15;2.45;;;3.60;99.90;;;;;;5078166;28;20038;-68
2022/02/20 03:09:04;;;;;;;2.70;2.50;;;3.60;99.90;;;;;;5059573;28;20036;-68
2022/02/20 03:11:30;;;;;;;3.08;2.70;;;3.60;99.90;;;;;;5077462;28;20051;-68
2022/02/20 03:13:56;;;;;;;2.92;2.53;;;3.60;99.90;;;;;;5060771;28;20123;-68
2022/02/20 03:16:22;;;;;;;3.47;2.65;;;3.60;99.90;;;;;;5079303;28;20108;-68
2022/02/20 03:18:48;;;;;;;4.60;2.70;;;3.70;99.90;;;;;;5077927;28;20461;-68
2022/02/20 03:21:14;;;;;;;3.10;2.38;;;3.60;99.90;;;;;;5061386;28;20040;-68
2022/02/20 03:23:39;;;;;;;3.90;2.65;;;3.70;99.90;;;;;;5081560;28;20036;-68
2022/02/20 03:26:05;;;;;;;3.75;2.25;;;3.60;99.90;;;;;;5079797;28;20039;-68
2022/02/20 03:28:31;;;;;;;3.30;2.08;;;3.60;99.90;;;;;;5078358;28;20122;-68
2022/02/20 03:30:56;;;;;;;3.17;2.45;;;3.60;99.90;;;;;;5057620;28;20087;-68
2022/02/20 03:33:22;;;;;;;2.83;2.47;;;3.70;99.90;;;;;;5077241;28;20043;-68
2022/02/20 03:35:48;;;;;;;4.55;2.40;;;3.60;99.90;;;;;;5059010;28;20044;-68
2022/02/20 03:38:14;;;;;;;2.85;2.10;;;3.70;99.90;;;;;;5080278;28;20586;-68
2022/02/20 03:40:40;;;;;;;5.65;2.88;;;3.70;99.90;;;;;;5076019;28;20575;-68
2022/02/20 03:43:06;;;;;;;3.65;2.30;;;3.70;99.90;;;;;;5076892;28;20047;-68
2022/02/20 03:45:32;;;;;;;2.63;2.10;;;3.60;99.90;;;;;;5079199;28;20039;-68
2022/02/20 03:47:58;;;;;;;3.67;2.13;;;3.60;99.90;;;;;;5078287;28;20028;-68
2022/02/20 03:50:24;;;;;;;2.88;1.85;;;3.70;99.90;;;;;;5060187;28;20036;-68
2022/02/20 03:52:50;;;;;;;4.60;1.85;;;3.70;99.90;;;;;;5057731;28;20507;-68
2022/02/20 03:55:17;;;;;;;2.90;1.92;;;3.60;99.90;;;;;;5078825;28;20036;-68
2022/02/20 03:57:43;;;;;;;3.05;1.85;;;3.60;99.90;;;;;;5078600;28;20416;-68
2022/02/20 04:00:12;;;;;;;3.70;2.20;;;3.60;99.90;;;;;;5061187;28;20036;-68
2022/02/20 04:02:38;;;;;;;2.83;1.95;;;3.70;99.90;;;;;;5079374;28;20078;-68
2022/02/20 04:05:05;;;;;;;3.83;2.13;;;3.70;99.90;;;;;;5057232;28;20115;-67
2022/02/20 04:07:32;;;;;;;5.03;2.30;;;3.70;99.90;;;;;;5060805;28;20052;-67
2022/02/20 04:09:58;;;;;;;5.40;2.45;;;3.70;99.90;;;;;;5079046;28;20130;-67
2022/02/20 04:12:25;;;;;;;3.22;1.77;;;3.70;99.90;;;;;;5076230;28;20153;-67
2022/02/20 04:14:50;;;;;;;4.88;2.38;;;3.70;99.90;;;;;;5074649;28;20036;-68
2022/02/20 04:17:17;;;;;;;4.15;2.40;;;3.70;99.90;;;;;;5077509;28;20040;-68
2022/02/20 04:19:42;;;;;;;5.28;2.35;;;3.70;99.90;;;;;;5078151;28;20032;-68
2022/02/20 04:22:08;;;;;;;2.95;2.47;;;3.70;99.90;;;;;;5077024;28;20040;-68
2022/02/20 04:24:34;;;;;;;4.28;2.47;;;3.80;99.90;;;;;;5045816;28;20028;-68
2022/02/20 04:26:59;;;;;;;4.30;2.45;;;3.80;99.90;;;;;;5058255;28;20041;-68
2022/02/20 04:29:26;;;;;;;3.22;2.35;;;3.80;99.90;;;;;;5078551;28;20178;-68
2022/02/20 04:31:52;;;;;;;4.15;2.30;;;3.80;99.90;;;;;;5078379;28;20373;-68
2022/02/20 04:34:17;;;;;;;4.82;2.33;;;3.80;99.90;;;;;;5058477;28;20532;-68
2022/02/20 04:36:43;;;;;;;6.53;2.38;;;3.80;99.90;;;;;;5063147;28;20169;-67
2022/02/20 04:39:09;;;;;;;3.92;2.30;;;3.80;99.90;;;;;;5063465;28;20079;-67
2022/02/20 04:41:35;;;;;;;4.90;2.47;;;3.80;99.90;;;;;;5081747;28;20212;-67
2022/02/20 04:44:01;;;;;;;6.50;2.50;;;3.80;99.90;;;;;;5063649;28;20036;-67
2022/02/20 04:46:27;;;;;;;3.55;2.13;;;3.90;99.90;;;;;;5064676;28;20048;-67
2022/02/20 04:48:52;;;;;;;3.10;2.40;;;3.90;99.90;;;;;;5081414;28;20415;-67
2022/02/20 04:51:18;;;;;;;7.50;2.47;;;3.90;99.90;;;;;;5061951;28;20039;-67
2022/02/20 04:53:44;;;;;;;4.28;2.25;;;3.90;99.90;;;;;;5065158;28;20036;-68
2022/02/20 04:56:10;;;;;;;5.07;2.40;;;3.80;99.90;;;;;;5080369;28;20051;-68
2022/02/20 04:58:36;;;;;;;5.30;2.00;;;3.90;99.90;;;;;;5082297;28;20381;-68
2022/02/20 05:01:02;;;;;;;4.57;2.10;;;3.90;99.90;;;;;;5063727;28;20036;-68
2022/02/20 05:03:27;;;;;;;3.78;2.05;;;3.90;99.90;;;;;;5084842;28;20040;-68
2022/02/20 05:05:54;;;;;;;3.28;1.95;;;3.90;99.90;;;;;;5080504;28;20126;-67
2022/02/20 05:08:19;;;;;;;3.63;1.88;;;3.90;99.90;;;;;;5081954;28;20514;-67
2022/02/20 05:10:45;;;;;;;4.32;2.03;;;3.90;99.90;;;;;;5081532;28;20036;-67
2022/02/20 05:13:11;;;;;;;4.07;1.55;;;3.90;99.90;;;;;;5083586;28;20028;-67
2022/02/20 05:15:36;;;;;;;5.57;1.30;;;4.00;99.90;;;;;;5084058;28;20039;-67
2022/02/20 05:18:02;;;;;;;3.15;1.30;;;4.00;99.90;;;;;;5080957;28;20054;-67
2022/02/20 05:20:28;;;;;;;3.90;1.42;;;4.00;99.90;;;;;;5082024;28;20051;-67
2022/02/20 05:22:54;;;;;;;4.07;1.40;;;4.00;99.90;;;;;;5080704;28;20178;-67
2022/02/20 05:25:19;;;;;;;5.80;1.55;;;4.00;99.90;;;;;;5079617;28;20028;-67
2022/02/20 05:27:45;;;;;;;2.40;1.10;;;4.00;99.90;;;;;;5081218;28;20112;-67
2022/02/20 05:30:12;;;;;;;2.13;1.40;;;4.10;99.90;;;;;;5080625;28;20046;-67
2022/02/20 05:32:39;;;;;;;5.78;1.48;;;4.00;99.90;;;;;;5082156;28;20464;-67
2022/02/20 05:35:08;;;;;;;5.65;2.25;;;4.00;99.90;;;;;;5062083;28;20039;-67
2022/02/20 05:37:46;;;;;;;3.83;1.48;;;4.10;99.90;;;;;;5082014;28;20398;-67
2022/02/20 05:40:14;;;;;;;6.93;1.45;;;4.10;99.90;;;;;;5079169;28;20178;-67
2022/02/20 05:42:40;;;;;;;3.58;1.20;;;4.10;99.90;;;;;;5079619;28;21042;-67
2022/02/20 05:45:06;;;;;;;3.47;1.17;;;4.10;99.90;;;;;;5081272;28;20079;-67
2022/02/20 05:47:32;;;;;;;3.33;1.10;;;4.10;99.90;;;;;;5060018;28;20491;-67
2022/02/20 05:49:58;;;;;;;7.32;1.40;;;4.10;99.90;;;;;;5076815;28;20127;-67
2022/02/20 05:52:24;;;;;;;6.13;1.27;;;4.10;99.90;;;;;;5082928;28;20534;-67
2022/02/20 05:54:50;;;;;;;5.22;1.38;;;4.10;99.90;;;;;;5077321;28;20079;-67
2022/02/20 05:57:15;;;;;;;2.78;1.20;;;4.10;99.90;;;;;;5078110;28;20032;-67
2022/02/20 05:59:41;;;;;;;4.07;1.42;;;4.10;99.90;;;;;;5061681;28;20077;-67
2022/02/20 06:02:07;;;;;;;4.90;1.40;;;4.10;99.90;;;;;;5045978;28;20059;-67
2022/02/20 06:04:32;;;;;;;9.75;1.52;;;4.10;99.90;;;;;;5080710;28;20135;-66
2022/02/20 06:06:58;;;;;;;6.70;1.70;;;4.10;99.90;;;;;;5060254;28;20064;-66
2022/02/20 06:09:24;;;;;;;8.30;1.83;;;4.10;99.90;;;;;;5078466;28;20551;-67
2022/02/20 06:11:50;;;;;;;4.65;1.48;;;4.10;99.90;;;;;;5059949;28;20501;-66
2022/02/20 06:14:16;;;;;;;4.03;2.42;;;4.10;99.90;;;;;;5083421;28;20043;-66
2022/02/20 06:16:42;;;;;;;4.18;2.15;;;4.10;99.90;;;;;;5078519;28;20041;-66
2022/02/20 06:19:07;;;;;;;4.80;2.10;;;4.10;99.90;;;;;;5060602;28;20044;-66
2022/02/20 06:21:33;;;;;;;6.63;2.17;;;4.10;99.90;;;;;;5077507;28;20040;-67
2022/02/20 06:23:59;;;;;;;6.18;2.58;;;4.20;99.90;;;;;;5078130;28;20055;-66
2022/02/20 06:26:24;;;;;;;9.07;2.92;;;4.10;99.90;;;;;;5062231;28;20036;-66
2022/02/20 06:28:50;;;;;;;7.40;2.50;;;4.10;99.90;;;;;;5078625;28;20044;-66
2022/02/20 06:31:16;;;;;;;5.82;2.50;;;4.10;99.90;;;;;;5059322;28;20071;-66
2022/02/20 06:33:42;;;;;;;7.95;2.40;;;4.10;99.90;;;;;;5080965;28;20143;-66
2022/02/20 06:36:08;;;;;;;7.97;3.17;;;4.10;99.90;;;;;;5079930;28;20476;-65
2022/02/20 06:38:34;;;;;;;6.00;2.78;;;4.00;99.90;;;;;;5058964;28;20113;-65
2022/02/20 06:41:01;;;;;;;6.07;2.00;;;4.00;99.90;;;;;;5078604;28;20040;-65
2022/02/20 06:43:27;;;;;;;6.68;2.10;;;4.00;99.90;;;;;;5059586;28;20052;-65
2022/02/20 06:45:52;;;;;;;6.55;2.88;;;4.00;99.90;;;;;;5079909;28;20085;-65
2022/02/20 06:48:18;;;;;;;5.70;2.90;;;4.00;99.90;;;;;;5078074;28;20531;-65
2022/02/20 06:50:44;;;;;;;7.65;2.75;;;4.00;99.90;;;;;;5077867;28;20047;-65
2022/02/20 06:53:10;;;;;;;8.93;2.85;;;4.00;99.90;;;;;;5080048;28;20514;-65
2022/02/20 06:55:35;;;;;;;5.18;2.85;;;4.00;99.90;;;;;;5078260;28;20481;-65
2022/02/20 06:58:01;;;;;;;10.88;2.75;;;3.90;99.90;;;;;;5078662;28;20127;-65
2022/02/20 07:00:27;;;;;;;5.05;2.83;;;4.00;99.90;;;;;;5078721;28;20058;-65
2022/02/20 07:02:53;;;;;;;6.57;2.53;;;4.00;99.90;;;;;;5061465;28;20043;-65
2022/02/20 07:05:19;;;;;;;7.72;2.85;;;4.00;99.90;;;;;;5078927;28;20049;-65
2022/02/20 07:07:45;;;;;;;11.38;3.72;;;4.00;99.90;;;;;;5077085;28;20123;-64
2022/02/20 07:10:10;;;;;;;9.57;3.75;;;4.10;99.90;;;;;;5077391;28;20444;-64
2022/02/20 07:12:37;;;;;;;9.63;3.95;;;4.10;99.90;;;;;;5079283;28;20556;-64
2022/02/20 07:15:04;;;;;;;6.40;3.78;;;4.10;99.90;;;;;;5081978;28;20188;-64
2022/02/20 07:17:30;;;;;;;9.77;4.40;;;4.10;99.90;;;;;;5076650;28;20563;-65
2022/02/20 07:19:58;;;;;;;10.50;4.40;;;4.10;99.90;;;;;;5086191;28;20038;-65
2022/02/20 07:22:24;;;;;;;11.38;5.00;;;4.10;99.90;;;;;;5077853;28;20089;-64
2022/02/20 07:24:50;;;;;;;11.57;4.45;;;4.10;99.90;;;;;;5081139;28;20036;-64
2022/02/20 07:27:16;;;;;;;12.95;5.03;;;4.10;99.90;;;;;;5077476;28;20028;-65
2022/02/20 07:29:42;;;;;;;9.18;4.78;;;4.20;99.90;;;;;;5076292;28;20032;-65
2022/02/20 07:32:08;;;;;;;11.07;5.53;;;4.20;99.90;;;;;;5076803;28;20130;-67
2022/02/20 07:34:35;;;;;;;11.63;5.43;;;4.20;99.90;;;;;;5075119;28;20039;-66
2022/02/20 07:37:00;;;;;;;14.18;5.97;;;4.20;99.90;;;;;;5078090;28;20053;-66
2022/02/20 07:39:26;;;;;;;9.93;6.22;;;4.30;99.90;;;;;;5076400;28;20058;-66
2022/02/20 07:41:52;;;;;;;13.73;6.65;;;4.40;99.90;;;;;;5076871;28;20064;-66
2022/02/20 07:44:17;;;;;;;12.20;6.00;;;4.40;99.90;;;;;;5059023;28;20043;-66
2022/02/20 07:46:43;;;;;;;11.43;5.25;;;4.40;99.90;;;;;;5075648;28;20043;-66
2022/02/20 07:49:10;;;;;;;10.20;5.88;;;4.50;99.90;;;;;;5075863;28;20059;-66
2022/02/20 07:51:35;;;;;;;8.70;5.72;;;4.60;99.90;;;;;;5078309;28;20040;-66
2022/02/20 07:54:01;;;;;;;10.93;5.43;;;4.70;99.90;;;;;;5075418;28;20047;-66
2022/02/20 07:56:27;;;;;;;8.02;5.40;;;4.80;99.90;;;;;;5079018;28;20040;-65
2022/02/20 07:58:53;;;;;;;9.20;5.95;;;4.80;99.90;;;;;;5076573;28;20415;-65
2022/02/20 08:01:19;;;;;;;8.65;5.50;;;4.80;99.90;;;;;;5074529;28;20492;-65
2022/02/20 08:03:45;;;;;;;9.80;6.00;;;4.90;99.90;;;;;;5061565;28;20101;-64
2022/02/20 08:06:11;;;;;;;10.68;6.22;;;5.00;99.90;;;;;;5055796;28;20052;-64
2022/02/20 08:08:37;;;;;;;10.43;5.60;;;5.00;99.90;;;;;;5078441;28;20373;-64
2022/02/20 08:11:03;;;;;;;12.18;6.85;;;5.00;99.90;;;;;;5057332;28;20036;-65
2022/02/20 08:13:29;;;;;;;12.68;6.95;;;5.00;99.90;;;;;;5060383;28;20081;-65
2022/02/20 08:15:55;;;;;;;11.07;7.28;;;5.00;99.90;;;;;;5080903;28;20085;-65
2022/02/20 08:18:20;;;;;;;10.60;6.60;;;5.10;99.90;;;;;;5078107;28;20048;-65
2022/02/20 08:20:46;;;;;;;12.38;7.15;;;5.20;99.90;;;;;;5083002;28;20376;-66
2022/02/20 08:23:13;;;;;;;8.48;6.80;;;5.20;99.90;;;;;;5081374;28;20063;-65
2022/02/20 08:25:40;;;;;;;12.18;6.95;;;5.30;99.90;;;;;;5067410;28;20044;-65
2022/02/20 08:28:06;;;;;;;9.63;6.57;;;5.30;99.90;;;;;;5084049;28;20396;-65
2022/02/20 08:30:32;;;;;;;13.85;6.97;;;5.40;99.90;;;;;;5067217;28;20421;-65
2022/02/20 08:32:58;;;;;;;12.40;7.93;;;5.50;99.90;;;;;;5086839;28;20040;-65
2022/02/20 08:35:24;;;;;;;9.85;6.30;;;5.50;99.90;;;;;;5083833;28;20032;-65
2022/02/20 08:37:49;;;;;;;12.05;6.05;;;5.60;99.90;;;;;;5071236;28;20451;-65
2022/02/20 08:40:17;;;;;;;14.25;7.00;;;5.70;99.90;;;;;;5081492;28;20055;-65
2022/02/20 08:42:45;;;;;;;10.77;6.65;;;5.80;99.90;;;;;;5059424;28;20040;-66
2022/02/20 08:45:12;;;;;;;10.13;6.03;;;5.90;99.90;;;;;;5081893;28;20035;-66
2022/02/20 08:47:37;;;;;;;10.15;6.57;;;6.00;99.90;;;;;;5083603;28;20122;-65
2022/02/20 08:50:05;;;;;;;12.73;6.40;;;6.10;99.90;;;;;;5064450;28;20032;-65
2022/02/20 08:52:30;;;;;;;9.23;5.20;;;6.20;99.90;;;;;;5077686;28;20531;-65
2022/02/20 08:54:56;;;;;;;8.95;5.32;;;6.30;99.90;;;;;;5080522;28;20044;-65
2022/02/20 08:57:22;;;;;;;8.88;5.60;;;6.30;99.90;;;;;;5083622;28;20421;-65
2022/02/20 08:59:49;;;;;;;10.02;5.43;;;6.60;99.90;;;;;;5085040;28;20392;-65
2022/02/20 09:02:15;;;;;;;7.88;4.82;;;6.60;99.90;;;;;;5080144;28;20044;-65
2022/02/20 09:04:40;;;;;;;9.07;5.18;;;6.70;99.90;;;;;;5082540;28;20164;-65
2022/02/20 09:07:07;;;;;;;11.13;4.85;;;6.90;99.90;;;;;;5085204;28;20032;-65
2022/02/20 09:09:33;;;;;;;8.38;4.60;;;7.00;99.90;;;;;;5065272;28;20087;-65
2022/02/20 09:11:59;;;;;;;7.07;3.65;;;7.00;99.90;;;;;;5078244;28;20307;-66
2022/02/20 09:14:25;;;;;;;6.15;4.40;;;7.10;99.90;;;;;;5080670;28;20024;-66
2022/02/20 09:16:51;;;;;;;10.30;4.60;;;7.20;99.90;;;;;;5077180;28;20086;-65
2022/02/20 09:19:17;;;;;;;8.90;4.68;;;7.30;99.90;;;;;;5090505;28;20036;-65
2022/02/20 09:21:43;;;;;;;8.35;4.38;;;7.40;99.90;;;;;;5065602;28;20115;-65
2022/02/20 09:24:09;;;;;;;11.65;4.85;;;7.50;99.90;;;;;;5083992;28;20037;-65
2022/02/20 09:26:35;;;;;;;10.50;4.85;;;7.50;99.90;;;;;;5090265;28;20119;-65
2022/02/20 09:29:01;;;;;;;10.68;4.55;;;7.60;99.90;;;;;;5083723;28;20503;-65
2022/02/20 09:31:27;;;;;;;8.27;4.13;;;7.60;99.90;;;;;;5083251;28;20032;-65
2022/02/20 09:33:52;;;;;;;16.25;6.15;;;7.70;99.90;;;;;;5086828;28;20036;-65
2022/02/20 09:36:18;;;;;;;12.82;5.00;;;7.80;99.90;;;;;;5079908;28;20044;-65
2022/02/20 09:38:44;;;;;;;16.27;5.03;;;7.80;99.90;;;;;;5078618;28;20040;-65
2022/02/20 09:41:12;;;;;;;14.73;4.07;;;7.90;99.90;;;;;;5086444;28;20451;-65
2022/02/20 09:43:39;;;;;;;21.33;5.28;;;7.90;99.90;;;;;;5084961;28;20044;-65
2022/02/20 09:46:06;;;;;;;18.92;5.18;;;8.00;99.90;;;;;;5077330;28;20551;-65
2022/02/20 09:48:32;;;;;;;19.83;4.68;;;8.00;99.90;;;;;;5080806;28;20044;-65
2022/02/20 09:50:59;;;;;;;18.90;4.18;;;8.10;99.90;;;;;;5077189;28;20040;-66
2022/02/20 09:53:26;;;;;;;32.13;5.00;;;8.20;99.90;;;;;;5083588;28;20036;-66
2022/02/20 09:55:53;;;;;;;27.75;5.47;;;8.30;99.90;;;;;;5084224;28;20395;-66
2022/02/20 09:58:18;;;;;;;34.83;5.03;;;8.40;99.90;;;;;;5082397;28;20039;-66
2022/02/20 10:00:55;;;;;;;30.95;4.32;;;8.40;99.90;;;;;;5083258;28;20036;-66
2022/02/20 10:03:38;;;;;;;35.63;5.65;;;8.50;99.90;;;;;;5078481;28;20408;-66
2022/02/20 10:06:05;;;;;;;39.63;5.10;;;8.50;99.90;;;;;;5060977;28;20039;-66
2022/02/20 10:08:40;;;;;;;38.83;5.32;;;8.60;99.90;;;;;;5079251;28;20381;-65
2022/02/20 10:11:21;;;;;;;30.45;4.80;;;8.60;99.90;;;;;;5078506;28;20123;-65
2022/02/20 10:13:49;;;;;;;39.00;6.05;;;8.70;99.90;;;;;;5083038;28;20040;-66
2022/02/20 10:16:20;;;;;;;36.20;5.82;;;8.80;99.90;;;;;;5061461;28;20040;-66
2022/02/20 10:18:47;;;;;;;38.00;5.40;;;8.80;99.90;;;;;;5080978;28;20036;-66
2022/02/20 10:21:21;;;;;;;35.58;5.13;;;8.80;99.90;;;;;;5078032;28;20412;-66
2022/02/20 10:23:47;;;;;;;39.20;6.23;;;8.90;99.90;;;;;;5063116;28;20032;-65
2022/02/20 10:26:19;;;;;;;40.50;5.75;;;8.90;99.90;;;;;;5081271;28;20058;-66
2022/02/20 10:29:12;;;;;;;39.30;5.50;;;8.90;99.90;;;;;;5067900;28;20048;-66
2022/02/20 10:31:50;;;;;;;40.63;5.65;;;8.90;99.90;;;;;;5078757;28;20076;-66
2022/02/20 10:34:26;;;;;;;46.60;5.93;;;9.00;99.90;;;;;;5082626;28;20481;-66
2022/02/20 10:36:57;;;;;;;38.30;5.38;;;8.90;99.90;;;;;;5087050;28;20554;-66
2022/02/20 10:39:30;;;;;;;40.67;6.78;;;9.00;99.90;;;;;;5076750;28;20049;-65
2022/02/20 10:42:17;;;;;;;38.70;5.80;;;9.00;99.90;;;;;;5080809;28;20039;-65
2022/02/20 10:45:00;;;;;;;38.05;6.10;;;9.00;99.90;;;;;;5083325;28;20028;-66
2022/02/20 10:47:32;;;;;;;41.05;6.03;;;9.00;99.90;;;;;;5078803;28;20040;-66
2022/02/20 10:50:21;;;;;;;35.85;6.57;;;9.00;99.90;;;;;;5077783;28;20036;-65
2022/02/20 10:52:47;;;;;;;40.70;6.78;;;9.10;99.90;;;;;;5059763;28;20048;-66
2022/02/20 10:55:14;;;;;;;32.95;4.85;;;9.10;99.90;;;;;;5079191;28;20040;-66
2022/02/20 10:57:42;;;;;;;39.90;6.28;;;9.20;99.90;;;;;;5083057;28;20110;-65
2022/02/20 11:00:28;;;;;;;41.65;6.45;;;9.20;99.90;;;;;;5059896;28;20508;-65
2022/02/20 11:03:08;;;;;;;30.65;5.30;;;9.20;99.90;;;;;;5060336;28;20078;-66
2022/02/20 11:05:35;;;;;;;37.80;6.53;;;9.20;99.90;;;;;;5080643;28;20510;-66
2022/02/20 11:08:01;;;;;;;38.88;6.30;;;9.20;99.90;;;;;;5078662;28;20032;-66
2022/02/20 11:10:27;;;;;;;41.30;6.32;;;9.30;99.90;;;;;;5077952;28;20377;-66
2022/02/20 11:12:53;;;;;;;30.95;6.38;;;9.30;99.90;;;;;;5081980;28;20398;-66
2022/02/20 11:15:19;;;;;;;37.78;6.32;;;9.40;99.90;;;;;;5079143;28;20074;-66
2022/02/20 11:17:46;;;;;;;46.15;7.70;;;9.40;99.90;;;;;;5081146;28;20405;-66
2022/02/20 11:20:12;;;;;;;32.15;5.90;;;9.40;99.90;;;;;;5078807;28;20437;-66
2022/02/20 11:22:44;;;;;;;38.80;6.07;;;9.40;99.90;;;;;;5062564;28;20058;-66
2022/02/20 11:25:10;;;;;;;46.67;7.40;;;9.40;99.90;;;;;;5075975;28;20032;-66
2022/02/20 11:27:41;;;;;;;44.20;7.55;;;9.40;99.90;;;;;;5081024;28;20401;-66
2022/02/20 11:30:08;;;;;;;43.35;7.05;;;9.40;99.90;;;;;;5081199;28;20079;-66
2022/02/20 11:32:38;;;;;;;43.13;6.85;;;9.40;99.90;;;;;;5064205;28;20476;-66
2022/02/20 11:35:12;;;;;;;38.55;7.40;;;9.40;99.90;;;;;;5082419;28;20519;-66
2022/02/20 11:37:51;;;;;;;;;;;9.50;99.90;;;;;;5081230;28;20041;-67
2022/02/20 11:40:18;;;;;;;39.25;6.55;;;9.40;99.90;;;;;;5080875;28;20396;-66
2022/02/20 11:42:59;;;;;;;33.40;6.00;;;9.40;99.90;;;;;;5081017;28;20161;-66
2022/02/20 11:45:30;;;;;;;32.42;5.70;;;9.40;99.90;;;;;;5077121;28;20396;-66
2022/02/20 11:48:07;;;;;;;32.78;6.47;;;9.50;99.90;;;;;;5077056;28;20054;-66
2022/02/20 11:50:37;;;;;;;45.30;6.82;;;9.40;99.90;;;;;;5081135;28;20068;-66
2022/02/20 11:53:07;;;;;;;41.97;6.72;;;9.40;99.90;;;;;;5080236;28;20044;-66
2022/02/20 11:55:40;;;;;;;36.92;7.50;;;9.40;99.90;;;;;;5076784;28;20051;-66
2022/02/20 11:58:13;;;;;;;39.25;5.95;;;9.40;99.90;;;;;;5076271;28;20488;-66
2022/02/20 12:01:02;;;;;;;35.67;7.28;;;9.40;99.90;;;;;;5080541;28;20032;-66
2022/02/20 12:03:31;;;;;;;41.05;9.60;;;9.40;99.90;;;;;;5064629;28;20043;-66
2022/02/20 12:08:41;;;;;;;34.92;5.95;;;9.40;99.90;;;;;;5082850;28;20097;-66
2022/02/20 12:11:19;;;;;;;34.67;6.20;;;9.40;99.90;;;;;;5074378;28;20043;-66
2022/02/20 12:13:53;;;;;;;49.80;8.18;;;9.40;99.90;;;;;;5083515;28;20540;-66
2022/02/20 12:16:24;;;;;;;38.53;7.18;;;9.40;99.90;;;;;;5083222;28;20579;-67
2022/02/20 12:19:14;;;;;;;33.80;6.40;;;9.40;99.90;;;;;;5076724;28;20083;-66
2022/02/20 12:21:51;;;;;;;39.75;6.60;;;9.50;99.90;;;;;;5077156;28;20396;-67
2022/02/20 12:24:22;;;;;;;40.15;6.57;;;9.50;99.90;;;;;;5083666;28;20097;-66
2022/02/20 12:26:59;;;;;;;38.58;6.38;;;9.30;99.90;;;;;;5079219;28;20039;-66
2022/02/20 12:29:39;;;;;;;37.75;6.18;;;9.40;99.90;;;;;;5057009;28;20056;-66
2022/02/20 12:32:11;;;;;;;41.85;6.90;;;9.40;99.90;;;;;;5076778;28;20036;-66
2022/02/20 12:34:49;;;;;;;36.40;7.35;;;9.50;99.90;;;;;;5083957;28;20096;-66
2022/02/20 12:37:17;;;;;;;51.95;7.05;;;9.40;99.90;;;;;;5058253;28;20170;-66
2022/02/20 12:39:44;;;;;;;33.67;5.75;;;9.40;99.90;;;;;;5076886;28;20512;-66
2022/02/20 12:42:10;;;;;;;46.88;7.38;;;9.50;99.90;;;;;;5076617;28;20041;-66
2022/02/20 12:44:40;;;;;;;46.17;7.20;;;9.50;99.90;;;;;;5077533;28;20059;-66
2022/02/20 12:47:07;;;;;;;44.10;8.10;;;9.50;99.90;;;;;;5077416;28;20129;-66
2022/02/20 12:49:40;;;;;;;44.72;7.07;;;9.50;99.90;;;;;;5066837;28;20056;-66
2022/02/20 12:52:10;;;;;;;42.88;6.97;;;9.50;99.90;;;;;;5079584;28;20048;-66
2022/02/20 12:54:36;;;;;;;40.88;7.13;;;9.50;99.90;;;;;;5064804;28;20518;-66
2022/02/20 12:57:05;;;;;;;36.13;6.30;;;9.50;99.90;;;;;;5061548;28;20066;-66